Time;durP1;ratioP1;P1;durP2;ratioP2;P2;SDS_P1;SDS_P2;PMS_P1;PMS_P2;Temp;Humidity;BMP_temperature;BMP_pressure;BME280_temperature;BME280_humidity;BME280_pressure;Samples;Min_cycle;Max_cycle;Signal;HPM_P1;HPM_P2
2022/11/30 00:00:36;;;;;;;19.47;10.17;;;9.10;99.90;;;;;;5059436;28;20188;-78
2022/11/30 00:03:02;;;;;;;21.77;10.90;;;9.10;99.90;;;;;;5052743;28;20271;-78
2022/11/30 00:05:33;;;;;;;19.77;10.47;;;9.10;99.90;;;;;;5091935;28;20301;-76
2022/11/30 00:08:02;;;;;;;20.80;11.27;;;9.10;99.90;;;;;;5096477;28;20188;-78
2022/11/30 00:10:30;;;;;;;19.30;11.20;;;9.10;99.90;;;;;;5097041;28;20203;-77
2022/11/30 00:12:55;;;;;;;18.37;10.93;;;9.10;99.90;;;;;;5060015;28;20210;-77
2022/11/30 00:15:23;;;;;;;19.40;11.00;;;9.10;99.90;;;;;;5089041;28;20181;-76
2022/11/30 00:17:54;;;;;;;20.27;11.27;;;9.00;99.90;;;;;;5056031;28;20192;-77
2022/11/30 00:20:22;;;;;;;17.47;10.43;;;9.00;99.90;;;;;;5056100;28;20187;-77
2022/11/30 00:22:47;;;;;;;16.83;10.30;;;9.00;99.90;;;;;;5098527;28;20176;-77
2022/11/30 00:25:15;;;;;;;21.23;11.20;;;9.00;99.90;;;;;;5094557;28;20191;-76
2022/11/30 00:27:43;;;;;;;22.03;11.13;;;9.10;99.90;;;;;;5090741;28;20214;-77
2022/11/30 00:30:14;;;;;;;19.90;10.73;;;9.00;99.90;;;;;;5058084;28;20199;-78
2022/11/30 00:32:39;;;;;;;19.03;10.17;;;8.90;99.90;;;;;;5094122;28;20192;-77
2022/11/30 00:35:05;;;;;;;19.57;10.90;;;9.00;99.90;;;;;;5093257;28;20177;-77
2022/11/30 00:37:33;;;;;;;21.87;11.53;;;8.90;99.90;;;;;;5061836;28;20397;-76
2022/11/30 00:39:58;;;;;;;20.37;11.70;;;8.90;99.90;;;;;;5095564;28;20192;-77
2022/11/30 00:42:26;;;;;;;22.90;11.63;;;8.90;99.90;;;;;;5097454;28;20202;-78
2022/11/30 00:44:54;;;;;;;23.40;11.93;;;8.90;99.90;;;;;;5096771;28;20173;-77
2022/11/30 00:47:22;;;;;;;25.07;12.80;;;8.90;99.90;;;;;;5097091;28;20283;-78
2022/11/30 00:49:48;;;;;;;26.40;13.47;;;8.90;99.90;;;;;;5069492;28;20179;-78
2022/11/30 00:52:15;;;;;;;22.30;13.40;;;8.90;99.90;;;;;;5095716;28;20176;-77
2022/11/30 00:54:43;;;;;;;21.87;13.80;;;8.90;99.90;;;;;;5060685;28;20176;-78
2022/11/30 00:57:10;;;;;;;25.93;14.13;;;8.80;99.90;;;;;;5090596;28;20173;-77
2022/11/30 00:59:36;;;;;;;27.60;15.67;;;8.90;99.90;;;;;;5097546;28;20196;-78
2022/11/30 01:02:04;;;;;;;26.23;14.70;;;8.90;99.90;;;;;;5093782;28;20186;-76
2022/11/30 01:04:29;;;;;;;26.83;15.00;;;8.80;99.90;;;;;;5097619;28;20426;-78
2022/11/30 01:06:57;;;;;;;24.37;14.43;;;8.80;99.90;;;;;;5098020;28;20207;-78
2022/11/30 01:09:23;;;;;;;24.53;14.57;;;8.80;99.90;;;;;;5094408;28;20187;-78
2022/11/30 01:11:48;;;;;;;27.37;15.90;;;8.70;99.90;;;;;;5098366;28;20184;-77
2022/11/30 01:14:16;;;;;;;30.90;16.30;;;8.70;99.90;;;;;;5052685;28;20180;-78
2022/11/30 01:16:42;;;;;;;28.30;16.37;;;8.70;99.90;;;;;;5062151;28;20258;-78
2022/11/30 01:19:07;;;;;;;30.03;16.23;;;8.70;99.90;;;;;;5094487;28;20172;-78
2022/11/30 01:21:33;;;;;;;28.60;15.93;;;8.70;99.90;;;;;;5093768;28;20177;-78
2022/11/30 01:23:59;;;;;;;30.80;15.70;;;8.70;99.90;;;;;;5092596;28;20191;-77
2022/11/30 01:26:24;;;;;;;33.50;17.57;;;8.60;99.90;;;;;;5095919;28;20234;-78
2022/11/30 01:28:54;;;;;;;29.53;17.10;;;8.60;99.90;;;;;;5094073;28;20177;-78
2022/11/30 01:31:24;;;;;;;30.67;16.50;;;8.70;99.90;;;;;;5099779;28;20169;-78
2022/11/30 01:33:51;;;;;;;26.07;14.43;;;8.60;99.90;;;;;;5091762;28;20196;-78
2022/11/30 01:39:11;;;;;;;28.63;15.93;;;8.60;99.90;;;;;;5079196;28;20181;-79
2022/11/30 01:41:40;;;;;;;29.87;15.73;;;8.60;99.90;;;;;;5093514;28;20218;-78
2022/11/30 01:44:05;;;;;;;26.67;15.00;;;8.60;99.90;;;;;;5095053;28;20185;-78
2022/11/30 01:47:04;;;;;;;27.33;14.57;;;8.60;99.90;;;;;;5061124;28;20238;-79
2022/11/30 01:49:54;;;;;;;26.97;14.80;;;8.60;99.90;;;;;;5091428;28;20184;-78
2022/11/30 01:52:27;;;;;;;28.10;13.80;;;8.60;99.90;;;;;;5060750;28;20198;-80
2022/11/30 01:55:00;;;;;;;35.83;16.13;;;8.60;99.90;;;;;;5092936;28;20252;-80
2022/11/30 01:57:34;;;;;;;31.27;14.67;;;8.60;99.90;;;;;;5056763;28;20736;-80
2022/11/30 02:00:05;;;;;;;36.17;16.13;;;8.60;99.90;;;;;;5094653;28;20187;-79
2022/11/30 02:02:43;;;;;;;35.43;16.03;;;8.60;99.90;;;;;;5100732;28;20220;-79
2022/11/30 02:05:10;;;;;;;34.17;15.77;;;8.60;99.90;;;;;;5061590;28;20187;-78
2022/11/30 02:07:36;;;;;;;40.07;18.37;;;8.60;99.90;;;;;;5059370;28;20200;-80
2022/11/30 02:10:03;;;;;;;35.33;16.43;;;8.60;99.90;;;;;;5062007;28;20192;-79
2022/11/30 02:12:44;;;;;;;34.50;16.20;;;8.50;99.90;;;;;;5061482;28;20200;-79
2022/11/30 02:15:20;;;;;;;33.17;14.87;;;8.50;99.90;;;;;;5097003;28;20195;-80
2022/11/30 02:17:52;;;;;;;34.60;15.27;;;8.50;99.90;;;;;;5061618;28;20180;-79
2022/11/30 02:20:36;;;;;;;35.27;15.90;;;8.50;99.90;;;;;;5057659;28;20176;-78
2022/11/30 02:23:25;;;;;;;38.43;17.07;;;8.50;99.90;;;;;;5061193;28;20185;-78
2022/11/30 02:26:03;;;;;;;36.33;15.30;;;8.50;99.90;;;;;;5065300;28;20192;-78
2022/11/30 02:29:17;;;;;;;39.53;15.57;;;8.50;99.90;;;;;;5060050;28;20180;-77
2022/11/30 02:32:01;;;;;;;37.30;15.07;;;8.50;99.90;;;;;;5049090;28;20188;-78
2022/11/30 02:34:31;;;;;;;37.13;15.67;;;8.50;99.90;;;;;;5059227;28;20310;-78
2022/11/30 02:36:58;;;;;;;43.20;17.07;;;8.50;99.90;;;;;;5092309;28;20189;-77
2022/11/30 02:39:24;;;;;;;33.63;15.07;;;8.50;99.90;;;;;;5092785;28;20204;-78
2022/11/30 02:41:50;;;;;;;37.10;15.67;;;8.60;99.90;;;;;;5097368;28;20254;-78
2022/11/30 02:44:20;;;;;;;34.37;14.57;;;8.60;99.90;;;;;;5095254;28;20184;-78
2022/11/30 02:47:00;;;;;;;36.17;15.77;;;8.60;99.90;;;;;;5092902;28;20204;-78
2022/11/30 02:50:11;;;;;;;31.97;13.77;;;8.60;99.90;;;;;;5059598;28;20176;-79
2022/11/30 02:52:37;;;;;;;34.03;13.53;;;8.60;99.90;;;;;;5059223;28;20195;-78
2022/11/30 02:55:10;;;;;;;29.80;13.63;;;8.60;99.90;;;;;;5064743;28;20232;-78
2022/11/30 02:57:41;;;;;;;37.17;14.03;;;8.60;99.90;;;;;;5057044;28;20185;-78
2022/11/30 03:00:11;;;;;;;30.70;13.57;;;8.60;99.90;;;;;;5092986;28;20206;-77
2022/11/30 03:02:40;;;;;;;32.90;14.40;;;8.60;99.90;;;;;;5055285;28;20243;-78
2022/11/30 03:05:06;;;;;;;33.30;14.27;;;8.60;99.90;;;;;;5093934;28;20192;-78
2022/11/30 03:07:34;;;;;;;37.27;15.10;;;8.60;99.90;;;;;;5054711;28;20253;-79
2022/11/30 03:10:00;;;;;;;31.13;13.60;;;8.60;99.90;;;;;;5059446;28;20185;-79
2022/11/30 03:12:26;;;;;;;34.20;14.10;;;8.70;99.90;;;;;;5091884;28;20179;-79
2022/11/30 03:14:52;;;;;;;30.83;13.73;;;8.70;99.90;;;;;;5092555;28;20203;-79
2022/11/30 03:17:18;;;;;;;33.00;14.30;;;8.70;99.90;;;;;;5059797;28;20184;-79
2022/11/30 03:19:43;;;;;;;34.90;15.27;;;8.70;99.90;;;;;;5097233;28;20279;-78
2022/11/30 03:22:09;;;;;;;34.70;13.97;;;8.80;99.90;;;;;;5081498;28;20207;-79
2022/11/30 03:24:35;;;;;;;33.13;14.80;;;8.70;99.90;;;;;;5062440;28;20204;-79
2022/11/30 03:27:03;;;;;;;35.87;14.53;;;8.90;99.90;;;;;;5062144;28;20260;-79
2022/11/30 03:29:28;;;;;;;32.87;14.17;;;8.90;99.90;;;;;;5101020;28;20186;-79
2022/11/30 03:31:54;;;;;;;31.97;14.17;;;8.90;99.90;;;;;;5092793;28;20196;-79
2022/11/30 03:34:26;;;;;;;33.43;14.40;;;8.90;99.90;;;;;;5066049;28;20195;-79
2022/11/30 03:36:54;;;;;;;32.47;13.20;;;8.90;99.90;;;;;;5057653;28;20180;-79
2022/11/30 03:39:23;;;;;;;33.60;13.67;;;8.90;99.90;;;;;;5057547;28;20208;-78
2022/11/30 03:41:51;;;;;;;29.67;13.03;;;8.90;99.90;;;;;;5097646;28;20199;-79
2022/11/30 03:44:17;;;;;;;29.87;13.07;;;8.90;99.90;;;;;;5060643;28;20312;-79
2022/11/30 03:46:43;;;;;;;29.07;12.97;;;8.90;99.90;;;;;;5097199;28;20213;-79
2022/11/30 03:49:10;;;;;;;33.03;12.60;;;9.00;99.90;;;;;;5094822;28;20181;-78
2022/11/30 03:51:36;;;;;;;28.97;12.13;;;8.90;99.90;;;;;;5065610;28;20180;-79
2022/11/30 03:54:02;;;;;;;29.27;12.60;;;8.90;99.90;;;;;;5098246;28;20272;-79
2022/11/30 03:56:30;;;;;;;32.70;13.57;;;8.90;99.90;;;;;;5060815;28;20256;-80
2022/11/30 03:58:56;;;;;;;29.97;13.00;;;8.90;99.90;;;;;;5093183;28;20248;-79
2022/11/30 04:01:22;;;;;;;30.13;12.67;;;8.90;99.90;;;;;;5094141;28;20227;-79
2022/11/30 04:03:51;;;;;;;28.57;12.20;;;8.80;99.90;;;;;;5060077;28;20190;-79
2022/11/30 04:06:22;;;;;;;27.13;12.67;;;8.90;99.90;;;;;;5058407;28;20196;-80
2022/11/30 04:08:50;;;;;;;25.97;12.17;;;8.90;99.90;;;;;;5094632;28;20188;-80
2022/11/30 04:11:16;;;;;;;29.90;13.53;;;8.90;99.90;;;;;;5065909;28;20188;-78
2022/11/30 04:13:44;;;;;;;27.10;12.87;;;8.90;99.90;;;;;;5096900;28;20263;-79
2022/11/30 04:16:12;;;;;;;25.37;12.70;;;8.90;99.90;;;;;;5105302;28;20187;-79
2022/11/30 04:18:38;;;;;;;27.37;12.53;;;8.90;99.90;;;;;;5061596;28;20196;-80
2022/11/30 04:21:06;;;;;;;25.90;12.43;;;8.90;99.90;;;;;;5078943;28;20185;-80
2022/11/30 04:23:36;;;;;;;24.70;11.70;;;8.80;99.90;;;;;;5096410;28;20184;-80
2022/11/30 04:26:09;;;;;;;23.07;12.30;;;9.00;99.90;;;;;;5097041;28;20215;-81
2022/11/30 04:28:34;;;;;;;24.60;11.90;;;8.80;99.90;;;;;;5101211;28;20200;-80
2022/11/30 04:31:03;;;;;;;22.50;10.90;;;8.80;99.90;;;;;;5063289;28;20213;-80
2022/11/30 04:33:29;;;;;;;23.00;11.27;;;8.90;99.90;;;;;;5094834;28;20199;-80
2022/11/30 04:35:58;;;;;;;21.20;11.27;;;8.80;99.90;;;;;;5094247;28;20203;-79
2022/11/30 04:38:24;;;;;;;23.53;10.87;;;8.90;99.90;;;;;;5095534;28;20185;-80
2022/11/30 04:40:50;;;;;;;24.20;11.50;;;8.90;99.90;;;;;;5063025;28;20227;-79
2022/11/30 04:43:16;;;;;;;24.30;11.10;;;8.80;99.90;;;;;;5099298;28;20176;-80
2022/11/30 04:45:44;;;;;;;25.60;11.83;;;8.90;99.90;;;;;;5092397;28;20214;-80
2022/11/30 04:48:11;;;;;;;27.60;12.67;;;8.90;99.90;;;;;;5097110;28;20184;-81
2022/11/30 04:50:38;;;;;;;25.00;11.73;;;8.90;99.90;;;;;;5095964;28;20208;-81
2022/11/30 04:53:04;;;;;;;27.73;12.57;;;8.90;99.90;;;;;;5093671;28;20190;-80
2022/11/30 04:55:32;;;;;;;27.83;13.37;;;8.80;99.90;;;;;;5099197;28;20263;-79
2022/11/30 04:58:00;;;;;;;25.10;12.03;;;8.90;99.90;;;;;;5065973;28;20206;-81
2022/11/30 05:00:26;;;;;;;28.10;12.97;;;8.90;99.90;;;;;;5062213;28;20326;-80
2022/11/30 05:02:54;;;;;;;25.23;12.67;;;8.90;99.90;;;;;;5097376;28;20187;-81
2022/11/30 05:05:20;;;;;;;26.57;12.30;;;8.90;99.90;;;;;;5098284;28;20173;-79
2022/11/30 05:07:58;;;;;;;27.17;12.93;;;8.80;99.90;;;;;;5063404;28;20227;-81
2022/11/30 05:10:24;;;;;;;26.10;12.57;;;9.00;99.90;;;;;;5092560;28;20234;-80
2022/11/30 05:12:50;;;;;;;26.10;12.40;;;8.80;99.90;;;;;;5081063;28;20187;-80
2022/11/30 05:15:19;;;;;;;25.00;12.07;;;8.70;99.90;;;;;;5094989;28;20196;-78
2022/11/30 05:17:44;;;;;;;26.43;12.70;;;8.70;99.90;;;;;;5066783;28;20195;-79
2022/11/30 05:20:10;;;;;;;25.40;11.87;;;8.80;99.90;;;;;;5059381;28;20181;-79
2022/11/30 05:22:36;;;;;;;25.43;12.53;;;8.70;99.90;;;;;;5097442;28;20222;-81
2022/11/30 05:25:02;;;;;;;26.27;11.83;;;8.80;99.90;;;;;;5092951;28;20176;-81
2022/11/30 05:27:30;;;;;;;23.23;11.30;;;8.70;99.90;;;;;;5097691;28;20203;-80
2022/11/30 05:29:58;;;;;;;31.20;13.30;;;8.80;99.90;;;;;;5097007;28;20177;-82
2022/11/30 05:32:33;;;;;;;31.37;13.67;;;8.70;99.90;;;;;;5093475;28;20192;-80
2022/11/30 05:35:01;;;;;;;31.10;13.03;;;8.70;99.90;;;;;;5046244;28;20184;-80
2022/11/30 05:37:29;;;;;;;30.20;13.30;;;8.70;99.90;;;;;;5092065;28;20193;-81
2022/11/30 05:39:55;;;;;;;38.30;15.17;;;8.70;99.90;;;;;;5095073;28;20176;-82
2022/11/30 05:42:21;;;;;;;34.53;15.07;;;8.90;99.90;;;;;;5059274;28;20242;-82
2022/11/30 05:44:46;;;;;;;38.27;15.20;;;8.70;99.90;;;;;;5093302;28;20180;-78
2022/11/30 05:47:12;;;;;;;35.90;14.77;;;8.70;99.90;;;;;;5096993;28;20227;-80
2022/11/30 05:49:38;;;;;;;30.10;14.10;;;8.90;99.90;;;;;;5062667;28;20184;-81
2022/11/30 05:52:04;;;;;;;35.50;14.03;;;8.70;99.90;;;;;;5096825;28;20210;-81
2022/11/30 05:54:30;;;;;;;34.70;14.30;;;8.70;99.90;;;;;;5059258;28;20173;-82
2022/11/30 05:56:55;;;;;;;37.30;15.97;;;8.80;99.90;;;;;;5094454;28;20237;-81
2022/11/30 05:59:22;;;;;;;38.43;16.23;;;8.70;99.90;;;;;;5094122;28;20191;-80
2022/11/30 06:01:47;;;;;;;36.97;16.20;;;8.70;99.90;;;;;;5094115;28;20177;-79
2022/11/30 06:04:13;;;;;;;45.43;17.00;;;8.70;99.90;;;;;;5098767;28;20222;-80
2022/11/30 06:06:38;;;;;;;37.33;15.40;;;8.90;99.90;;;;;;5092529;28;20258;-79
2022/11/30 06:09:16;;;;;;;34.80;14.80;;;9.10;99.90;;;;;;5059588;28;20191;-80
2022/11/30 06:11:42;;;;;;;37.27;16.07;;;9.00;99.90;;;;;;5058396;28;20176;-80
2022/11/30 06:14:08;;;;;;;31.50;14.17;;;8.70;99.90;;;;;;5057313;28;20181;-79
2022/11/30 06:16:33;;;;;;;32.67;14.77;;;8.70;99.90;;;;;;5063799;28;20187;-83
2022/11/30 06:18:59;;;;;;;36.07;16.00;;;8.70;99.90;;;;;;5057745;28;20180;-81
2022/11/30 06:21:25;;;;;;;34.07;14.53;;;8.70;99.90;;;;;;5058521;28;20177;-81
2022/11/30 06:23:51;;;;;;;31.80;14.80;;;8.70;99.90;;;;;;5061083;28;20200;-80
2022/11/30 06:26:17;;;;;;;33.57;14.47;;;8.80;99.90;;;;;;5094241;28;20292;-80
2022/11/30 06:28:42;;;;;;;34.97;15.07;;;8.70;99.90;;;;;;5092831;28;20264;-81
2022/11/30 06:31:09;;;;;;;33.70;14.97;;;8.80;99.90;;;;;;5058786;28;20253;-80
2022/11/30 06:33:35;;;;;;;31.63;14.37;;;8.80;99.90;;;;;;5088810;28;20277;-81
2022/11/30 06:36:01;;;;;;;29.03;13.77;;;8.80;99.90;;;;;;5095757;28;20248;-82
2022/11/30 06:38:26;;;;;;;31.97;14.70;;;8.90;99.90;;;;;;5091887;28;20188;-81
2022/11/30 06:40:52;;;;;;;32.57;15.93;;;8.90;99.90;;;;;;5091297;28;20192;-80
2022/11/30 06:43:19;;;;;;;32.03;14.47;;;9.10;99.90;;;;;;5093315;28;20271;-80
2022/11/30 06:45:45;;;;;;;31.77;13.93;;;8.90;99.90;;;;;;5092305;28;20234;-80
2022/11/30 06:48:11;;;;;;;33.17;15.37;;;8.90;99.90;;;;;;5057635;28;20177;-79
2022/11/30 06:50:37;;;;;;;30.07;15.07;;;9.20;99.90;;;;;;5055826;28;20181;-81
2022/11/30 06:53:03;;;;;;;30.33;14.80;;;8.90;99.90;;;;;;5059088;28;20180;-81
2022/11/30 06:55:31;;;;;;;34.80;16.80;;;8.90;99.90;;;;;;5059335;28;20191;-80
2022/11/30 06:58:07;;;;;;;35.23;17.63;;;8.90;99.90;;;;;;5110462;28;20176;-81
2022/11/30 07:00:34;;;;;;;32.13;15.47;;;8.90;99.90;;;;;;5108976;28;20259;-80
2022/11/30 07:03:03;;;;;;;35.20;17.17;;;9.10;99.90;;;;;;5094048;28;20195;-80
2022/11/30 07:05:33;;;;;;;29.47;15.23;;;8.90;99.90;;;;;;5062202;28;20192;-80
2022/11/30 07:08:07;;;;;;;32.80;16.00;;;8.60;99.90;;;;;;5060425;28;20184;-80
2022/11/30 07:10:32;;;;;;;35.47;17.47;;;8.90;99.90;;;;;;5092185;28;20181;-79
2022/11/30 07:12:59;;;;;;;38.40;18.87;;;9.20;99.90;;;;;;5092643;28;20325;-75
2022/11/30 07:15:25;;;;;;;36.13;17.33;;;8.90;99.90;;;;;;5061373;28;20196;-75
2022/11/30 07:17:52;;;;;;;37.63;17.27;;;8.90;99.90;;;;;;5091873;28;20185;-75
2022/11/30 07:20:18;;;;;;;37.80;18.20;;;8.80;99.90;;;;;;5094348;28;20180;-75
2022/11/30 07:22:44;;;;;;;33.37;17.70;;;8.80;99.90;;;;;;5057838;28;20179;-76
2022/11/30 07:27:59;;;;;;;37.87;16.77;;;8.80;99.90;;;;;;5077649;28;20203;-75
2022/11/30 07:30:29;;;;;;;36.50;16.47;;;8.80;99.90;;;;;;5092965;28;20184;-75
2022/11/30 07:32:59;;;;;;;41.37;18.70;;;8.80;99.90;;;;;;5092115;28;20218;-76
2022/11/30 07:35:27;;;;;;;39.10;18.63;;;8.80;99.90;;;;;;5093159;28;20224;-75
2022/11/30 07:37:55;;;;;;;39.80;18.70;;;8.80;99.90;;;;;;5057889;28;20184;-76
2022/11/30 07:40:20;;;;;;;45.40;20.80;;;8.70;99.90;;;;;;5090560;28;20176;-76
2022/11/30 07:42:46;;;;;;;48.57;22.30;;;8.80;99.90;;;;;;5091377;28;20199;-76
2022/11/30 07:45:12;;;;;;;42.10;20.37;;;8.80;99.90;;;;;;5093515;28;20180;-75
2022/11/30 07:47:37;;;;;;;41.70;19.50;;;8.70;99.90;;;;;;5093159;28;20265;-75
2022/11/30 07:50:03;;;;;;;40.23;20.20;;;8.60;99.90;;;;;;5095452;28;20195;-75
2022/11/30 07:52:31;;;;;;;38.77;20.03;;;8.70;99.90;;;;;;5097033;28;20275;-75
2022/11/30 07:55:00;;;;;;;42.60;19.37;;;8.70;99.90;;;;;;5088643;28;20173;-76
2022/11/30 07:57:26;;;;;;;36.00;18.00;;;8.70;99.90;;;;;;5092708;28;20185;-76
2022/11/30 07:59:51;;;;;;;37.30;18.50;;;8.60;99.90;;;;;;5091045;28;20271;-77
2022/11/30 08:02:19;;;;;;;40.67;19.40;;;8.70;99.90;;;;;;5095026;28;20295;-75
2022/11/30 08:04:45;;;;;;;35.87;18.63;;;8.70;99.90;;;;;;5091225;28;20184;-76
2022/11/30 08:07:11;;;;;;;34.37;18.13;;;8.70;99.90;;;;;;5092876;28;20201;-76
2022/11/30 08:09:36;;;;;;;34.70;16.13;;;8.70;99.90;;;;;;5092800;28;20179;-75
2022/11/30 08:12:04;;;;;;;35.23;18.80;;;8.70;99.90;;;;;;5092068;28;20187;-76
2022/11/30 08:14:30;;;;;;;32.17;16.67;;;8.70;99.90;;;;;;5065232;28;20185;-76
2022/11/30 08:16:55;;;;;;;32.23;16.83;;;8.70;99.90;;;;;;5096255;28;20196;-76
2022/11/30 08:19:21;;;;;;;28.60;16.70;;;8.70;99.90;;;;;;5096649;28;20294;-75
2022/11/30 08:21:46;;;;;;;32.93;18.40;;;8.80;99.90;;;;;;5090791;28;20196;-75
2022/11/30 08:24:12;;;;;;;30.83;16.97;;;8.80;99.90;;;;;;5095065;28;20191;-76
2022/11/30 08:26:38;;;;;;;31.77;17.77;;;8.80;99.90;;;;;;5090303;28;20346;-75
2022/11/30 08:29:04;;;;;;;27.40;16.10;;;8.70;99.90;;;;;;5090946;28;20177;-76
2022/11/30 08:31:32;;;;;;;26.77;14.97;;;8.80;99.90;;;;;;5090396;28;20172;-76
2022/11/30 08:34:02;;;;;;;28.83;15.67;;;8.80;99.90;;;;;;5090909;28;20291;-76
2022/11/30 08:36:32;;;;;;;30.10;15.80;;;8.90;99.90;;;;;;5098600;28;20271;-76
2022/11/30 08:39:04;;;;;;;34.70;16.93;;;8.80;99.90;;;;;;5057443;28;20181;-76
2022/11/30 08:41:30;;;;;;;28.73;16.53;;;8.80;99.90;;;;;;5057639;28;20200;-75
2022/11/30 08:43:55;;;;;;;26.60;15.20;;;8.80;99.90;;;;;;5091713;28;20187;-76
2022/11/30 08:46:23;;;;;;;26.40;15.10;;;8.80;99.90;;;;;;5092628;28;20235;-75
2022/11/30 08:48:49;;;;;;;23.13;13.73;;;8.80;99.90;;;;;;5092900;28;20199;-75
2022/11/30 08:51:16;;;;;;;22.57;13.60;;;8.80;99.90;;;;;;5060019;28;20180;-74
2022/11/30 08:53:42;;;;;;;24.20;14.43;;;8.90;99.90;;;;;;5074974;28;20238;-75
2022/11/30 08:56:20;;;;;;;20.70;13.13;;;9.00;99.90;;;;;;5059513;28;20195;-76
2022/11/30 08:58:46;;;;;;;26.00;14.70;;;8.90;99.90;;;;;;5095135;28;20204;-75
2022/11/30 09:01:15;;;;;;;25.07;14.40;;;8.90;99.90;;;;;;5096078;28;20252;-75
2022/11/30 09:03:42;;;;;;;23.63;14.03;;;9.00;99.90;;;;;;5061660;28;20188;-77
2022/11/30 09:06:14;;;;;;;21.50;13.60;;;8.90;99.90;;;;;;5093744;28;20200;-76
2022/11/30 09:08:42;;;;;;;23.10;14.17;;;9.00;99.90;;;;;;5062889;28;20196;-76
2022/11/30 09:11:14;;;;;;;22.27;13.90;;;9.00;99.90;;;;;;5063460;28;20229;-77
2022/11/30 09:13:40;;;;;;;18.50;11.83;;;9.00;99.90;;;;;;5060385;28;20180;-76
2022/11/30 09:16:06;;;;;;;22.50;13.13;;;8.90;99.90;;;;;;5093823;28;20188;-77
2022/11/30 09:18:34;;;;;;;20.17;12.50;;;9.00;99.90;;;;;;5095373;28;20188;-77
2022/11/30 09:21:08;;;;;;;23.93;14.00;;;9.00;99.90;;;;;;5093590;28;20208;-77
2022/11/30 09:23:34;;;;;;;20.33;13.17;;;8.90;99.90;;;;;;5092146;28;20234;-77
2022/11/30 09:26:02;;;;;;;20.50;13.17;;;8.80;99.90;;;;;;5059819;28;20200;-78
2022/11/30 09:28:31;;;;;;;21.30;14.07;;;8.90;99.90;;;;;;5096571;28;20177;-77
2022/11/30 09:31:17;;;;;;;21.23;13.30;;;8.80;99.90;;;;;;5096477;28;20193;-77
2022/11/30 09:33:47;;;;;;;22.00;13.10;;;8.80;99.90;;;;;;5063742;28;20275;-77
2022/11/30 09:36:18;;;;;;;22.00;14.00;;;8.80;99.90;;;;;;5093867;28;20184;-77
2022/11/30 09:38:44;;;;;;;19.73;12.80;;;8.80;99.90;;;;;;5093679;28;20196;-78
2022/11/30 09:41:41;;;;;;;22.00;14.10;;;8.80;99.90;;;;;;5060706;28;20263;-78
2022/11/30 09:44:28;;;;;;;21.20;13.77;;;8.70;99.90;;;;;;5059257;28;20192;-78
2022/11/30 09:47:15;;;;;;;21.07;13.37;;;8.70;99.90;;;;;;5059001;28;20250;-77
2022/11/30 09:49:43;;;;;;;21.03;13.47;;;8.80;99.90;;;;;;5073580;28;20170;-77
2022/11/30 09:52:42;;;;;;;20.53;13.30;;;8.80;99.90;;;;;;5086053;28;20271;-77
2022/11/30 09:55:10;;;;;;;23.13;14.10;;;8.70;99.90;;;;;;5066848;28;20197;-77
2022/11/30 09:57:48;;;;;;;20.77;14.60;;;8.70;99.90;;;;;;5093767;28;20192;-78
2022/11/30 10:00:22;;;;;;;22.57;14.57;;;8.80;99.90;;;;;;5092841;28;20208;-78
2022/11/30 10:02:52;;;;;;;20.60;13.80;;;8.70;99.90;;;;;;5093068;28;20164;-77
2022/11/30 10:05:27;;;;;;;23.23;14.93;;;8.70;99.90;;;;;;5059133;28;20279;-78
2022/11/30 10:08:21;;;;;;;22.90;14.93;;;8.70;99.90;;;;;;5059321;28;20192;-77
2022/11/30 10:10:58;;;;;;;20.03;13.20;;;8.70;99.90;;;;;;5071132;28;20196;-78
2022/11/30 10:13:52;;;;;;;22.60;15.17;;;8.70;99.90;;;;;;5078813;28;20160;-78
2022/11/30 10:16:24;;;;;;;20.77;12.63;;;8.70;99.90;;;;;;5092114;28;20184;-77
2022/11/30 10:19:17;;;;;;;20.17;13.43;;;8.70;99.90;;;;;;5066966;28;20195;-77
2022/11/30 10:21:58;;;;;;;22.00;14.43;;;8.70;99.90;;;;;;5076006;28;20176;-78
2022/11/30 10:24:45;;;;;;;22.17;14.23;;;8.70;99.90;;;;;;5060054;28;20185;-77
2022/11/30 10:27:40;;;;;;;21.33;12.77;;;8.70;99.90;;;;;;5063189;28;20209;-78
2022/11/30 10:30:15;;;;;;;21.90;14.17;;;8.70;99.90;;;;;;5091188;28;20254;-78
2022/11/30 10:32:44;;;;;;;18.97;13.53;;;8.70;99.90;;;;;;5092413;28;20176;-77
2022/11/30 10:35:35;;;;;;;22.80;15.37;;;8.80;99.90;;;;;;5060750;28;20184;-75
2022/11/30 10:38:18;;;;;;;22.97;14.57;;;8.70;99.90;;;;;;5066117;28;20179;-78
2022/11/30 10:40:54;;;;;;;21.93;14.13;;;8.80;99.90;;;;;;5062995;28;20189;-78
2022/11/30 10:43:46;;;;;;;22.47;14.23;;;8.80;99.90;;;;;;5059047;28;20218;-78
2022/11/30 10:46:26;;;;;;;21.77;14.40;;;8.80;99.90;;;;;;5091145;28;20207;-77
2022/11/30 10:49:11;;;;;;;21.03;14.07;;;8.80;99.90;;;;;;5061948;28;20186;-77
2022/11/30 10:51:40;;;;;;;19.33;13.70;;;8.80;99.90;;;;;;5095233;28;20237;-77
2022/11/30 10:54:14;;;;;;;19.60;13.00;;;8.80;99.90;;;;;;5097401;28;20188;-76
2022/11/30 10:56:39;;;;;;;21.13;13.13;;;8.90;99.90;;;;;;5093368;28;20191;-77
2022/11/30 10:59:17;;;;;;;22.60;13.73;;;8.90;99.90;;;;;;5093156;28;20176;-77
2022/11/30 11:01:45;;;;;;;20.33;13.90;;;8.90;99.90;;;;;;5094805;28;20222;-78
2022/11/30 11:04:21;;;;;;;23.93;14.70;;;8.90;99.90;;;;;;5091997;28;20250;-77
2022/11/30 11:07:07;;;;;;;22.10;14.60;;;9.00;99.90;;;;;;5096411;28;20206;-78
2022/11/30 11:09:49;;;;;;;20.43;13.57;;;9.00;99.90;;;;;;5095053;28;20180;-77
2022/11/30 11:12:23;;;;;;;22.17;15.07;;;9.00;99.90;;;;;;5057577;28;20204;-78
2022/11/30 11:15:08;;;;;;;27.00;17.20;;;9.00;99.90;;;;;;5058361;28;20237;-78
2022/11/30 11:17:33;;;;;;;24.67;16.20;;;9.00;99.90;;;;;;5092109;28;20325;-78
2022/11/30 11:19:59;;;;;;;26.57;16.80;;;9.00;99.90;;;;;;5088914;28;20183;-78
2022/11/30 11:22:27;;;;;;;25.17;16.30;;;9.00;99.90;;;;;;5058398;28;20180;-79
2022/11/30 11:25:18;;;;;;;23.23;15.73;;;9.00;99.90;;;;;;5061463;28;20184;-80
2022/11/30 11:27:55;;;;;;;23.27;15.50;;;8.90;99.90;;;;;;5092030;28;20200;-78
2022/11/30 11:30:31;;;;;;;29.97;18.93;;;8.90;99.90;;;;;;5057669;28;20190;-79
2022/11/30 11:33:12;;;;;;;25.63;16.17;;;8.90;99.90;;;;;;5089627;28;20176;-77
2022/11/30 11:35:46;;;;;;;26.47;17.27;;;8.90;99.90;;;;;;5057990;28;20176;-78
2022/11/30 11:38:32;;;;;;;27.50;17.47;;;8.90;99.90;;;;;;5056548;28;20168;-78
2022/11/30 11:41:01;;;;;;;25.13;15.97;;;8.90;99.90;;;;;;5092241;28;20188;-79
2022/11/30 11:43:33;;;;;;;27.20;16.67;;;8.90;99.90;;;;;;5093225;28;20200;-79
2022/11/30 11:46:11;;;;;;;23.17;15.87;;;8.90;99.90;;;;;;5058379;28;20176;-78
2022/11/30 11:48:57;;;;;;;28.33;18.40;;;8.90;99.90;;;;;;5089094;28;20289;-78
2022/11/30 11:51:37;;;;;;;26.33;16.83;;;8.90;99.90;;;;;;5091571;28;20444;-79
2022/11/30 11:54:19;;;;;;;22.73;15.30;;;8.90;99.90;;;;;;5091950;28;20187;-79
2022/11/30 11:56:45;;;;;;;24.93;15.73;;;9.00;99.90;;;;;;5094392;28;21155;-78
2022/11/30 11:59:25;;;;;;;30.47;19.33;;;9.00;99.90;;;;;;5095000;28;20188;-77
2022/11/30 12:02:17;;;;;;;28.40;18.33;;;9.00;99.90;;;;;;5072999;28;20230;-77
2022/11/30 12:04:50;;;;;;;34.63;19.13;;;9.00;99.90;;;;;;5104104;28;20201;-78
2022/11/30 12:07:40;;;;;;;28.57;18.47;;;9.00;99.90;;;;;;5058217;28;20272;-78
2022/11/30 12:10:12;;;;;;;28.00;17.77;;;9.00;99.90;;;;;;5100082;28;20175;-79
2022/11/30 12:12:38;;;;;;;26.57;17.57;;;9.00;99.90;;;;;;5057350;28;20200;-77
2022/11/30 12:15:11;;;;;;;25.80;17.10;;;9.00;99.90;;;;;;5090586;28;20175;-78
2022/11/30 12:18:10;;;;;;;26.90;17.83;;;9.00;99.90;;;;;;5091510;28;20274;-77
2022/11/30 12:20:58;;;;;;;27.40;17.77;;;9.00;99.90;;;;;;5096643;28;20187;-77
2022/11/30 12:23:29;;;;;;;27.33;16.80;;;9.00;99.90;;;;;;5091007;28;20185;-77
2022/11/30 12:26:00;;;;;;;25.67;17.57;;;9.00;99.90;;;;;;5056154;28;20210;-77
2022/11/30 12:28:36;;;;;;;26.03;17.20;;;9.00;99.90;;;;;;5057066;28;20180;-78
2022/11/30 12:31:14;;;;;;;27.80;18.40;;;9.20;99.90;;;;;;5096724;28;20184;-76
2022/11/30 12:34:16;;;;;;;26.07;17.50;;;9.10;99.90;;;;;;5063392;28;20176;-77
2022/11/30 12:36:54;;;;;;;27.47;18.27;;;9.10;99.90;;;;;;5065254;28;20184;-78
2022/11/30 12:39:43;;;;;;;28.67;19.00;;;9.10;99.90;;;;;;5057600;28;20200;-77
2022/11/30 12:42:42;;;;;;;29.70;19.40;;;9.10;99.90;;;;;;5095731;28;20283;-77
2022/11/30 12:45:33;;;;;;;26.83;17.53;;;9.20;99.90;;;;;;5064144;28;20252;-78
2022/11/30 12:48:08;;;;;;;27.87;18.70;;;9.20;99.90;;;;;;5070332;28;20204;-78
2022/11/30 12:50:53;;;;;;;26.50;17.90;;;9.20;99.90;;;;;;5098860;28;20274;-77
2022/11/30 12:53:19;;;;;;;25.77;17.73;;;9.20;99.90;;;;;;5059434;28;20188;-77
2022/11/30 12:55:48;;;;;;;33.10;20.57;;;9.10;99.90;;;;;;5064934;28;20276;-78
2022/11/30 12:58:42;;;;;;;30.73;19.33;;;9.20;99.90;;;;;;5095067;28;20230;-78
2022/11/30 13:01:28;;;;;;;28.97;19.43;;;9.20;99.90;;;;;;5060479;28;20188;-78